Terminal Aerodrome Forecast
Issued by NWS

Current Version | Previous Version | Graphics & Text | Print | Product List | Glossary On
Versions: 1 2 3 4 5 6 7 8 9 10 11 12 13 14 15 16 17 18
000
FTUS41 KILN 051100 RRA
TAFLCK
TAF
KLCK 051143Z 0512/0612 VRB03KT P6SM BKN070
     FM051500 21007KT P6SM SCT060
     FM051800 22010KT P6SM VCTS BKN060CB
     FM060000 VRB03KT P6SM SCT080=

USA.gov is the U.S. government's official web portal to all federal, state and local government web resources and services.